Terminal Aerodrome Forecast
Issued by NWS Sioux Falls, SD

Home | Current Version | Previous Version | Graphics & Text | Print | Product List | Glossary Off
Versions: 1 2 3 4 5 6 7 8 9 10 11 12 13 14

000
FTUS43 KFSD 211120
TAFHON
TAF
KHON 211120Z 2112/2212 14012KT P6SM SKC
     FM211500 16018G25KT P6SM SKC
     FM220200 15014G20KT P6SM SCT120
     FM220800 15015G22KT P6SM BKN030=

USA.gov is the U.S. government's official web portal to all federal, state and local government web resources and services.